Time;durP1;ratioP1;P1;durP2;ratioP2;P2;SDS_P1;SDS_P2;PMS_P1;PMS_P2;Temp;Humidity;BMP_temperature;BMP_pressure;BME280_temperature;BME280_humidity;BME280_pressure;Samples;Min_cycle;Max_cycle;Signal;HPM_P1;HPM_P2
2023/06/02 00:00:50;;;;;;;9.47;6.53;;;;;;;13.97;100.00;99179.25;5027583;28;20233;-76
2023/06/02 00:03:20;;;;;;;8.07;6.23;;;;;;;14.17;100.00;99190.16;4992552;28;20212;-76
2023/06/02 00:05:49;;;;;;;9.67;6.37;;;;;;;14.04;100.00;99184.97;5026001;28;20201;-76
2023/06/02 00:08:17;;;;;;;8.60;6.73;;;;;;;14.10;100.00;99181.84;5025973;28;20204;-76
2023/06/02 00:10:46;;;;;;;8.50;6.40;;;;;;;13.83;100.00;99181.31;5022428;28;20204;-76
2023/06/02 00:13:14;;;;;;;10.67;6.57;;;;;;;13.85;100.00;99174.88;5024767;28;20206;-76
2023/06/02 00:15:43;;;;;;;8.80;6.67;;;;;;;13.89;100.00;99179.00;5023553;28;20277;-76
2023/06/02 00:18:11;;;;;;;10.10;6.80;;;;;;;14.11;100.00;99177.34;5020895;28;20204;-76
2023/06/02 00:20:42;;;;;;;8.80;7.07;;;;;;;13.93;100.00;99179.63;5032784;28;20216;-76
2023/06/02 00:23:10;;;;;;;8.20;6.43;;;;;;;14.13;100.00;99180.75;4988452;28;20339;-76
2023/06/02 00:25:40;;;;;;;9.40;6.73;;;;;;;14.15;100.00;99176.97;4991023;28;20258;-76
2023/06/02 00:28:09;;;;;;;9.70;6.07;;;;;;;14.10;100.00;99163.19;4988481;28;20207;-76
2023/06/02 00:30:37;;;;;;;9.53;6.10;;;;;;;14.21;100.00;99167.66;4987033;28;20195;-76
2023/06/02 00:33:06;;;;;;;9.63;6.50;;;;;;;14.12;100.00;99177.22;4989550;28;20205;-76
2023/06/02 00:35:34;;;;;;;8.43;6.80;;;;;;;13.70;100.00;99171.63;4988503;28;20199;-76
2023/06/02 00:38:04;;;;;;;12.47;7.27;;;;;;;13.74;100.00;99174.88;4984887;28;20209;-76
2023/06/02 00:40:33;;;;;;;8.27;6.43;;;;;;;13.91;100.00;99178.91;4985353;28;20203;-76
2023/06/02 00:43:03;;;;;;;11.40;6.90;;;;;;;13.94;100.00;99166.19;4987546;28;20249;-76
2023/06/02 00:45:32;;;;;;;10.60;6.77;;;;;;;13.99;100.00;99165.81;4985385;28;20230;-76
2023/06/02 00:48:02;;;;;;;10.93;6.63;;;;;;;13.98;100.00;99172.13;5010741;28;20197;-76
2023/06/02 00:50:33;;;;;;;10.97;7.27;;;;;;;13.72;100.00;99179.47;5026196;28;20186;-76
2023/06/02 00:53:03;;;;;;;11.37;7.60;;;;;;;13.45;100.00;99174.44;5019348;28;20228;-76
2023/06/02 00:55:33;;;;;;;13.50;7.87;;;;;;;13.74;100.00;99170.41;5023947;28;20224;-76
2023/06/02 00:58:03;;;;;;;10.80;7.37;;;;;;;13.59;100.00;99171.56;5026007;28;20652;-76
2023/06/02 01:00:36;;;;;;;10.33;6.87;;;;;;;13.34;100.00;99177.06;5023836;28;20208;-76
2023/06/02 01:03:07;;;;;;;11.67;7.37;;;;;;;13.42;100.00;99172.00;5025161;28;20684;-76
2023/06/02 01:05:40;;;;;;;13.17;7.47;;;;;;;13.36;100.00;99169.81;5026311;28;20201;-76
2023/06/02 01:08:11;;;;;;;12.47;7.57;;;;;;;13.32;100.00;99168.34;5027006;28;20201;-76
2023/06/02 01:10:40;;;;;;;9.80;7.03;;;;;;;13.48;100.00;99173.34;5024205;28;20300;-76
2023/06/02 01:13:08;;;;;;;8.30;6.27;;;;;;;13.23;100.00;99180.53;5022929;28;20193;-76
2023/06/02 01:15:37;;;;;;;9.53;6.63;;;;;;;13.32;100.00;99179.84;5028755;28;20204;-76
2023/06/02 01:18:10;;;;;;;13.47;7.83;;;;;;;13.18;100.00;99178.16;5025720;28;20212;-76
2023/06/02 01:20:47;;;;;;;11.70;6.80;;;;;;;13.27;100.00;99173.16;5033516;28;20201;-76
2023/06/02 01:23:21;;;;;;;14.70;7.67;;;;;;;12.99;100.00;99175.16;5028024;28;20606;-76
2023/06/02 01:25:53;;;;;;;12.07;7.47;;;;;;;13.10;100.00;99180.53;5030162;28;20225;-76
2023/06/02 01:28:22;;;;;;;12.50;7.57;;;;;;;13.05;100.00;99173.88;5030386;28;20225;-76
2023/06/02 01:30:53;;;;;;;8.80;7.00;;;;;;;13.13;100.00;99171.50;5026200;28;20201;-76
2023/06/02 01:33:27;;;;;;;12.00;7.07;;;;;;;13.46;100.00;99181.44;5029871;28;20225;-76
2023/06/02 01:35:59;;;;;;;11.90;6.93;;;;;;;13.62;100.00;99175.81;5031960;28;20236;-76
2023/06/02 01:38:29;;;;;;;10.00;6.23;;;;;;;13.52;100.00;99169.50;5029608;28;20201;-76
2023/06/02 01:41:03;;;;;;;9.87;6.43;;;;;;;13.83;100.00;99166.19;5027550;28;20208;-76
2023/06/02 01:43:34;;;;;;;11.23;6.73;;;;;;;13.65;100.00;99170.25;4993821;28;20317;-76
2023/06/02 01:46:02;;;;;;;9.37;6.50;;;;;;;13.53;100.00;99179.19;4991496;28;20191;-76
2023/06/02 01:48:31;;;;;;;13.43;6.33;;;;;;;13.56;100.00;99170.94;4989219;28;20278;-76
2023/06/02 01:51:00;;;;;;;15.30;6.60;;;;;;;13.82;100.00;99176.94;4990171;28;20211;-76
2023/06/02 01:53:28;;;;;;;10.30;6.70;;;;;;;13.86;100.00;99167.75;4991315;28;20195;-77
2023/06/02 01:55:57;;;;;;;9.73;6.17;;;;;;;13.72;100.00;99168.81;4992071;28;20201;-76
2023/06/02 01:58:27;;;;;;;11.03;6.47;;;;;;;13.55;100.00;99172.78;4985827;28;20214;-76
2023/06/02 02:00:56;;;;;;;11.13;6.63;;;;;;;13.16;100.00;99168.59;5000540;28;20190;-76
2023/06/02 02:03:24;;;;;;;11.47;6.80;;;;;;;13.05;100.00;99166.75;5027118;28;20304;-76
2023/06/02 02:05:53;;;;;;;9.77;6.07;;;;;;;13.06;100.00;99160.47;5029981;28;20205;-75
2023/06/02 02:08:21;;;;;;;11.67;7.43;;;;;;;12.78;100.00;99168.75;5030738;28;20201;-76
2023/06/02 02:10:50;;;;;;;11.43;7.13;;;;;;;12.98;100.00;99169.97;5028364;28;20209;-75
2023/06/02 02:13:18;;;;;;;10.73;7.13;;;;;;;12.71;100.00;99172.81;5031007;28;20194;-75
2023/06/02 02:15:48;;;;;;;9.33;6.63;;;;;;;12.75;100.00;99172.50;5032050;28;20240;-75
2023/06/02 02:18:20;;;;;;;11.33;6.80;;;;;;;12.73;100.00;99173.56;4988922;28;20227;-75
2023/06/02 02:20:49;;;;;;;11.43;6.87;;;;;;;12.84;100.00;99171.00;4987566;28;20243;-76
2023/06/02 02:23:18;;;;;;;14.67;7.23;;;;;;;12.91;100.00;99177.53;4951284;29;20762;-75
2023/06/02 02:25:46;;;;;;;11.67;7.30;;;;;;;12.77;100.00;99173.22;4946581;28;20225;-76
2023/06/02 02:28:15;;;;;;;9.67;6.20;;;;;;;12.92;100.00;99175.72;4948232;29;20227;-75
2023/06/02 02:30:43;;;;;;;12.90;6.43;;;;;;;13.00;100.00;99178.66;4946729;29;20201;-75
2023/06/02 02:33:13;;;;;;;12.70;6.57;;;;;;;13.02;100.00;99174.94;4943815;29;20247;-75
2023/06/02 02:35:42;;;;;;;11.77;6.90;;;;;;;13.06;100.00;99176.41;4960947;28;20229;-75
2023/06/02 02:38:10;;;;;;;10.43;6.90;;;;;;;12.78;100.00;99182.91;4987932;28;20287;-76
2023/06/02 02:40:38;;;;;;;12.87;6.80;;;;;;;12.86;100.00;99172.56;4994959;28;20195;-75
2023/06/02 02:43:07;;;;;;;13.27;6.97;;;;;;;12.61;100.00;99178.78;5026712;28;20260;-75
2023/06/02 02:45:36;;;;;;;10.53;6.77;;;;;;;12.53;100.00;99175.84;5031527;28;20290;-75
2023/06/02 02:48:04;;;;;;;13.57;6.67;;;;;;;12.39;100.00;99176.00;5030479;28;20311;-75
2023/06/02 02:50:35;;;;;;;11.27;6.97;;;;;;;12.53;100.00;99172.34;5028422;28;20197;-76
2023/06/02 02:53:04;;;;;;;9.50;6.50;;;;;;;12.56;100.00;99175.63;5022969;28;20205;-76
2023/06/02 02:55:33;;;;;;;13.20;7.13;;;;;;;12.72;100.00;99178.03;5025507;28;20221;-76
2023/06/02 02:58:02;;;;;;;10.60;6.50;;;;;;;12.61;100.00;99178.78;5029043;28;20202;-76
2023/06/02 03:00:32;;;;;;;10.07;7.17;;;;;;;12.43;100.00;99177.47;5025950;28;20221;-76
2023/06/02 03:03:02;;;;;;;10.87;6.60;;;;;;;12.64;100.00;99190.16;5026640;28;20239;-76
2023/06/02 03:05:34;;;;;;;11.33;6.57;;;;;;;12.54;100.00;99190.81;5028312;28;20206;-76
2023/06/02 03:08:07;;;;;;;10.57;6.80;;;;;;;12.58;100.00;99191.47;5009721;28;20202;-76
2023/06/02 03:10:37;;;;;;;8.80;6.23;;;;;;;12.98;100.00;99194.72;5003442;28;20245;-76
2023/06/02 03:13:05;;;;;;;11.47;6.20;;;;;;;12.96;100.00;99198.47;4998217;28;20194;-76
2023/06/02 03:15:34;;;;;;;14.87;6.40;;;;;;;12.83;100.00;99195.84;5004500;28;20191;-76
2023/06/02 03:18:04;;;;;;;11.70;6.50;;;;;;;12.99;100.00;99206.22;5004210;28;20277;-76
2023/06/02 03:20:33;;;;;;;9.77;5.90;;;;;;;13.05;100.00;99206.63;4946558;29;20220;-76
2023/06/02 03:23:01;;;;;;;14.00;6.47;;;;;;;13.15;100.00;99199.66;4947176;29;20251;-76
2023/06/02 03:25:34;;;;;;;10.03;6.40;;;;;;;13.13;100.00;99200.75;4949896;28;20651;-76
2023/06/02 03:28:02;;;;;;;12.40;7.00;;;;;;;13.00;100.00;99199.94;4965187;28;20211;-76
2023/06/02 03:30:31;;;;;;;11.20;6.20;;;;;;;12.77;100.00;99212.25;4965253;28;20210;-76
2023/06/02 03:32:59;;;;;;;8.57;5.87;;;;;;;12.62;100.00;99211.53;4965135;28;20192;-77
2023/06/02 03:35:28;;;;;;;10.83;6.40;;;;;;;12.93;100.00;99218.13;4970160;28;20202;-77
2023/06/02 03:37:56;;;;;;;12.23;6.23;;;;;;;12.72;100.00;99211.72;4966242;28;20204;-76
2023/06/02 03:40:26;;;;;;;11.37;6.80;;;;;;;12.78;100.00;99217.44;4926587;29;20236;-76
2023/06/02 03:42:55;;;;;;;10.90;6.27;;;;;;;12.53;100.00;99215.69;4931503;29;20201;-76
2023/06/02 03:45:24;;;;;;;13.30;6.57;;;;;;;12.53;100.00;99217.50;4967473;28;20203;-76
2023/06/02 03:47:53;;;;;;;13.13;6.50;;;;;;;12.87;100.00;99224.75;4984571;28;20198;-77
2023/06/02 03:50:22;;;;;;;10.77;6.20;;;;;;;13.08;100.00;99222.34;4989355;28;20199;-77
2023/06/02 03:52:50;;;;;;;11.53;6.03;;;;;;;13.10;100.00;99225.75;4980947;28;20206;-77
2023/06/02 03:55:19;;;;;;;11.13;7.03;;;;;;;12.74;100.00;99228.41;4982849;28;20218;-76
2023/06/02 03:57:50;;;;;;;8.67;6.33;;;;;;;12.56;100.00;99231.44;4935667;28;20199;-76
2023/06/02 04:00:23;;;;;;;11.47;6.77;;;;;;;12.36;100.00;99239.97;4983005;28;20767;-76
2023/06/02 04:02:53;;;;;;;8.47;6.30;;;;;;;12.53;100.00;99236.94;4980463;28;20222;-76
2023/06/02 04:05:23;;;;;;;10.03;6.37;;;;;;;12.44;100.00;99237.59;5011187;28;20256;-76
2023/06/02 04:07:56;;;;;;;11.47;6.13;;;;;;;12.58;100.00;99237.47;5026813;28;20186;-76
2023/06/02 04:10:25;;;;;;;10.53;6.63;;;;;;;12.78;100.00;99238.72;5027667;28;20228;-77
2023/06/02 04:12:54;;;;;;;9.83;6.20;;;;;;;12.54;100.00;99243.09;5020107;28;20194;-76
2023/06/02 04:15:24;;;;;;;11.70;6.07;;;;;;;12.55;100.00;99245.69;5023816;28;20277;-77
2023/06/02 04:17:52;;;;;;;9.60;6.03;;;;;;;12.53;100.00;99247.56;5031529;28;20190;-76
2023/06/02 04:20:21;;;;;;;10.10;6.27;;;;;;;12.38;100.00;99246.00;5023649;28;20205;-77
2023/06/02 04:22:50;;;;;;;13.13;6.33;;;;;;;12.58;100.00;99250.78;5024836;28;20209;-76
2023/06/02 04:25:19;;;;;;;8.00;5.73;;;;;;;12.50;100.00;99262.88;5028753;28;20225;-77
2023/06/02 04:27:48;;;;;;;8.90;5.80;;;;;;;12.61;100.00;99270.97;5025055;28;20236;-77
2023/06/02 04:30:16;;;;;;;10.27;6.43;;;;;;;12.45;100.00;99260.56;5022583;28;20201;-76
2023/06/02 04:32:47;;;;;;;12.07;6.13;;;;;;;12.43;100.00;99262.47;5028593;28;20190;-76
2023/06/02 04:35:15;;;;;;;10.07;6.10;;;;;;;12.39;100.00;99262.81;5025983;28;20272;-76
2023/06/02 04:37:46;;;;;;;14.00;6.30;;;;;;;12.24;100.00;99264.69;5025390;28;20209;-76
2023/06/02 04:40:15;;;;;;;9.03;6.23;;;;;;;12.10;100.00;99257.69;5024822;28;20228;-76
2023/06/02 04:42:46;;;;;;;9.97;6.53;;;;;;;12.01;100.00;99268.94;5026716;28;20680;-76
2023/06/02 04:45:16;;;;;;;10.87;6.77;;;;;;;12.30;100.00;99267.78;5027576;28;20221;-77
2023/06/02 04:47:46;;;;;;;9.90;6.30;;;;;;;12.33;100.00;99266.72;5026432;28;20198;-76
2023/06/02 04:50:15;;;;;;;10.60;6.63;;;;;;;12.38;100.00;99259.28;5021874;28;20203;-77
2023/06/02 04:52:44;;;;;;;9.97;6.43;;;;;;;11.98;100.00;99270.00;5027958;28;20724;-77
2023/06/02 04:55:14;;;;;;;10.43;6.03;;;;;;;12.25;100.00;99266.41;5032614;28;20280;-76
2023/06/02 04:57:43;;;;;;;8.70;6.33;;;;;;;12.41;100.00;99268.84;5036523;28;20233;-77
2023/06/02 05:00:13;;;;;;;10.63;6.27;;;;;;;12.49;100.00;99270.00;5028602;28;20240;-77
2023/06/02 05:02:43;;;;;;;9.90;5.80;;;;;;;12.54;100.00;99275.00;5026758;28;20205;-76
2023/06/02 05:05:14;;;;;;;9.37;5.80;;;;;;;12.59;100.00;99276.38;5023336;28;20224;-76
2023/06/02 05:07:42;;;;;;;11.07;6.10;;;;;;;12.52;100.00;99282.22;5031524;28;20281;-76
2023/06/02 05:10:11;;;;;;;11.80;6.40;;;;;;;12.45;100.00;99272.97;5028886;28;20212;-76
2023/06/02 05:12:41;;;;;;;7.70;5.37;;;;;;;12.71;100.00;99273.81;4997972;28;20212;-76
2023/06/02 05:15:10;;;;;;;8.67;6.17;;;;;;;12.56;100.00;99271.28;5027108;28;20209;-77
2023/06/02 05:17:41;;;;;;;9.90;6.00;;;;;;;12.71;100.00;99266.69;5024030;28;20189;-77
2023/06/02 05:20:11;;;;;;;8.50;5.87;;;;;;;12.40;100.00;99272.47;5027655;28;20198;-77
2023/06/02 05:22:40;;;;;;;8.53;5.80;;;;;;;12.44;100.00;99268.63;4995150;28;20204;-77
2023/06/02 05:25:10;;;;;;;11.50;5.53;;;;;;;12.72;100.00;99267.53;5027128;28;20281;-77
2023/06/02 05:27:38;;;;;;;10.67;5.57;;;;;;;12.65;100.00;99259.16;5035830;28;20198;-77
2023/06/02 05:30:08;;;;;;;9.73;5.70;;;;;;;12.66;100.00;99260.00;5026843;28;20205;-77
2023/06/02 05:32:36;;;;;;;9.77;5.53;;;;;;;12.77;100.00;99260.94;4991877;28;20201;-76
2023/06/02 05:35:07;;;;;;;13.83;5.87;;;;;;;12.66;100.00;99270.66;5026294;28;20205;-77
2023/06/02 05:37:35;;;;;;;6.83;5.77;;;;;;;12.67;100.00;99264.38;5029726;28;20194;-77
2023/06/02 05:40:06;;;;;;;11.40;5.90;;;;;;;12.76;100.00;99264.56;5026767;28;20197;-77
2023/06/02 05:42:35;;;;;;;10.00;5.87;;;;;;;13.07;100.00;99252.56;5030477;28;20225;-77
2023/06/02 05:45:05;;;;;;;8.57;5.43;;;;;;;12.99;100.00;99260.25;4998409;28;20228;-77
2023/06/02 05:47:34;;;;;;;14.63;6.17;;;;;;;12.85;100.00;99258.59;4990066;28;20218;-77
2023/06/02 05:50:02;;;;;;;10.40;5.87;;;;;;;12.58;100.00;99271.19;4986494;28;20218;-77
2023/06/02 05:52:30;;;;;;;9.70;6.10;;;;;;;12.67;100.00;99265.22;4989437;28;20203;-77
2023/06/02 05:54:59;;;;;;;8.50;5.50;;;;;;;12.53;100.00;99278.59;4988628;28;20250;-77
2023/06/02 05:57:29;;;;;;;7.90;5.63;;;;;;;12.84;100.00;99272.84;4991142;28;20199;-77
2023/06/02 05:59:57;;;;;;;7.73;5.90;;;;;;;12.97;100.00;99275.47;4989312;28;20650;-77
2023/06/02 06:02:26;;;;;;;9.87;5.73;;;;;;;13.13;100.00;99272.56;4987288;28;20250;-77
2023/06/02 06:04:55;;;;;;;9.63;5.73;;;;;;;13.37;100.00;99277.91;4988078;28;20223;-76
2023/06/02 06:07:24;;;;;;;7.23;5.33;;;;;;;13.35;100.00;99274.53;4991302;28;20238;-77
2023/06/02 06:09:52;;;;;;;12.17;6.23;;;;;;;13.33;100.00;99281.78;4984795;28;20199;-77
2023/06/02 06:12:21;;;;;;;10.53;5.30;;;;;;;13.27;100.00;99272.41;5008731;28;20209;-78
2023/06/02 06:14:51;;;;;;;8.17;4.90;;;;;;;13.68;100.00;99277.31;5001021;28;20194;-78
2023/06/02 06:17:20;;;;;;;8.13;5.23;;;;;;;13.61;100.00;99269.94;5029192;28;20201;-77
2023/06/02 06:19:48;;;;;;;5.83;5.17;;;;;;;13.86;100.00;99272.44;5027218;28;20285;-78
2023/06/02 06:22:16;;;;;;;7.77;5.53;;;;;;;13.85;100.00;99270.75;5026708;28;20209;-77
2023/06/02 06:24:45;;;;;;;9.10;5.13;;;;;;;13.80;100.00;99275.59;5029127;28;20217;-77
2023/06/02 06:27:13;;;;;;;9.73;5.23;;;;;;;13.72;100.00;99272.66;5031926;28;20217;-77
2023/06/02 06:29:42;;;;;;;8.63;5.43;;;;;;;13.68;100.00;99287.13;5026972;28;20201;-77
2023/06/02 06:32:12;;;;;;;12.20;5.50;;;;;;;13.77;100.00;99275.78;5021202;28;20209;-78
2023/06/02 06:34:40;;;;;;;8.03;5.40;;;;;;;13.77;100.00;99281.13;5027922;28;20206;-77
2023/06/02 06:37:08;;;;;;;7.37;5.57;;;;;;;13.78;100.00;99280.16;5031794;28;20190;-77
2023/06/02 06:39:37;;;;;;;6.40;5.00;;;;;;;14.12;100.00;99280.28;5028231;28;20209;-77
2023/06/02 06:42:06;;;;;;;8.23;5.07;;;;;;;13.79;100.00;99273.84;5022970;28;20278;-77
2023/06/02 06:44:34;;;;;;;11.47;5.20;;;;;;;13.91;100.00;99282.75;5026761;28;20197;-77
2023/06/02 06:47:05;;;;;;;6.83;4.93;;;;;;;14.18;100.00;99288.63;5028363;28;20324;-77
2023/06/02 06:49:35;;;;;;;7.97;5.40;;;;;;;14.48;100.00;99279.28;5026711;28;20201;-78
2023/06/02 06:52:04;;;;;;;7.03;4.80;;;;;;;14.59;100.00;99284.63;5027102;28;20204;-78
2023/06/02 06:54:32;;;;;;;11.23;5.30;;;;;;;14.24;100.00;99295.31;5028963;28;20197;-77
2023/06/02 06:57:00;;;;;;;8.40;4.90;;;;;;;14.26;100.00;99298.69;5028683;28;20212;-77
2023/06/02 06:59:28;;;;;;;7.27;4.83;;;;;;;14.63;100.00;99291.38;5027979;28;20224;-77
2023/06/02 07:01:57;;;;;;;8.70;4.67;;;;;;;14.89;100.00;99295.50;5028903;28;20202;-77
2023/06/02 07:04:25;;;;;;;8.67;5.10;;;;;;;14.51;100.00;99292.34;5031256;28;20196;-77
2023/06/02 07:06:55;;;;;;;6.80;5.00;;;;;;;14.81;100.00;99299.75;5030836;28;20276;-77
2023/06/02 07:09:25;;;;;;;8.57;4.80;;;;;;;14.99;100.00;99300.13;5027686;28;20247;-77
2023/06/02 07:11:54;;;;;;;8.47;5.10;;;;;;;14.20;100.00;99299.19;5026456;28;20197;-77
2023/06/02 07:14:22;;;;;;;8.70;4.90;;;;;;;14.31;100.00;99301.88;5026596;28;20194;-77
2023/06/02 07:16:54;;;;;;;8.13;5.03;;;;;;;14.28;100.00;99299.41;5028740;28;20240;-77
2023/06/02 07:19:23;;;;;;;7.70;4.63;;;;;;;14.64;100.00;99311.75;5026917;28;20235;-77
2023/06/02 07:21:53;;;;;;;9.40;4.67;;;;;;;14.86;100.00;99313.56;5027067;28;20197;-77
2023/06/02 07:24:22;;;;;;;9.40;4.37;;;;;;;14.94;100.00;99315.63;5024526;28;20197;-77
2023/06/02 07:26:51;;;;;;;9.73;4.50;;;;;;;14.97;100.00;99312.75;5028113;28;20244;-76
2023/06/02 07:29:19;;;;;;;7.43;4.20;;;;;;;15.00;95.86;99312.47;4971328;28;20212;-77
2023/06/02 07:31:47;;;;;;;12.50;5.10;;;;;;;14.91;96.12;99308.72;4930155;29;20614;-78
2023/06/02 07:34:16;;;;;;;13.10;4.87;;;;;;;15.01;96.69;99316.84;4934107;29;20201;-77
2023/06/02 07:36:46;;;;;;;9.03;4.50;;;;;;;15.06;94.98;99314.66;4924749;29;20657;-77
2023/06/02 07:39:15;;;;;;;10.13;5.10;;;;;;;14.95;96.05;99311.97;4928395;29;20240;-77
2023/06/02 07:41:45;;;;;;;7.57;4.50;;;;;;;15.16;97.34;99313.81;4929219;29;20399;-78
2023/06/02 07:44:14;;;;;;;8.77;4.67;;;;;;;15.01;95.23;99322.19;4927321;29;20193;-77
2023/06/02 07:46:43;;;;;;;7.27;4.67;;;;;;;15.16;94.85;99311.13;4931271;28;20766;-77
2023/06/02 07:49:12;;;;;;;10.20;4.33;;;;;;;15.10;94.39;99311.63;4965602;28;20667;-77
2023/06/02 07:51:41;;;;;;;8.30;4.90;;;;;;;14.87;94.07;99312.63;4963286;28;20234;-77
2023/06/02 07:54:09;;;;;;;9.23;4.97;;;;;;;15.26;93.96;99305.06;4965606;28;20208;-77
2023/06/02 07:56:38;;;;;;;9.47;4.50;;;;;;;15.28;93.14;99314.63;4998083;28;20198;-77
2023/06/02 07:59:11;;;;;;;10.50;4.90;;;;;;;15.25;91.14;99314.00;5025344;28;20207;-77
2023/06/02 08:01:40;;;;;;;10.17;4.70;;;;;;;15.59;91.62;99312.13;5026914;28;20228;-77
2023/06/02 08:04:11;;;;;;;8.57;4.47;;;;;;;15.69;89.37;99315.75;5026414;28;20217;-77
2023/06/02 08:06:41;;;;;;;9.70;5.33;;;;;;;15.43;91.52;99312.53;5023688;28;20221;-77
2023/06/02 08:09:11;;;;;;;10.97;4.57;;;;;;;15.55;91.09;99316.03;5032895;28;20240;-77
2023/06/02 08:11:40;;;;;;;8.77;4.53;;;;;;;15.55;90.15;99316.03;5027699;28;20190;-78
2023/06/02 08:14:11;;;;;;;9.83;4.60;;;;;;;15.74;86.78;99313.59;4985509;28;20736;-78
2023/06/02 08:16:41;;;;;;;10.23;4.87;;;;;;;15.59;86.58;99312.97;4985241;28;20387;-78
2023/06/02 08:19:25;;;;;;;14.53;5.00;;;;;;;15.27;91.93;99306.75;4986529;28;20195;-77
2023/06/02 08:21:54;;;;;;;13.47;5.40;;;;;;;15.43;90.94;99313.38;4988847;28;20195;-78
2023/06/02 08:24:26;;;;;;;11.50;5.10;;;;;;;15.35;86.95;99309.66;4987750;28;20195;-77
2023/06/02 08:26:55;;;;;;;10.83;5.00;;;;;;;15.55;85.82;99311.53;4983979;28;20747;-78
2023/06/02 08:29:26;;;;;;;9.20;4.80;;;;;;;15.92;85.68;99308.50;4987480;28;20250;-78
2023/06/02 08:31:58;;;;;;;8.70;5.03;;;;;;;15.93;85.36;99312.91;4996606;28;20264;-77
2023/06/02 08:34:27;;;;;;;10.00;5.40;;;;;;;15.99;86.04;99313.22;5026121;28;20206;-77
2023/06/02 08:37:00;;;;;;;8.10;5.60;;;;;;;16.00;83.01;99314.06;5024638;28;20201;-78
2023/06/02 08:39:29;;;;;;;9.93;5.20;;;;;;;15.93;84.49;99312.91;5025710;28;20209;-78
2023/06/02 08:42:01;;;;;;;11.90;5.57;;;;;;;16.10;84.78;99306.13;5027244;28;20201;-77
2023/06/02 08:44:32;;;;;;;9.23;5.20;;;;;;;16.21;82.51;99308.72;5032759;28;20202;-77
2023/06/02 08:47:02;;;;;;;8.67;5.20;;;;;;;16.54;81.70;99313.88;5025008;28;20304;-78
2023/06/02 08:49:36;;;;;;;9.93;4.87;;;;;;;16.23;84.24;99314.81;5030021;28;20197;-78
2023/06/02 08:52:10;;;;;;;8.13;5.53;;;;;;;15.73;85.02;99323.41;5023485;28;20228;-77
2023/06/02 08:54:40;;;;;;;10.87;5.60;;;;;;;15.94;85.23;99315.44;5032541;28;20200;-78
2023/06/02 08:57:09;;;;;;;12.57;4.90;;;;;;;16.33;85.92;99313.03;5028856;28;20660;-77
2023/06/02 08:59:43;;;;;;;14.57;5.10;;;;;;;16.07;84.63;99315.25;5021907;28;20197;-78
2023/06/02 09:02:11;;;;;;;14.57;5.30;;;;;;;16.17;81.90;99315.31;5027093;28;20216;-78
2023/06/02 09:04:40;;;;;;;16.87;5.00;;;;;;;16.37;82.89;99309.13;5032608;28;20228;-78
2023/06/02 09:07:21;;;;;;;9.00;5.10;;;;;;;16.30;85.05;99316.81;5025597;28;20217;-78
2023/06/02 09:09:51;;;;;;;10.23;5.37;;;;;;;16.35;82.83;99313.75;5028332;28;20209;-77
2023/06/02 09:12:22;;;;;;;10.57;4.70;;;;;;;16.58;81.99;99306.41;5032510;28;20194;-78
2023/06/02 09:15:11;;;;;;;16.30;5.70;;;;;;;16.42;82.82;99303.41;5029637;28;20332;-78
2023/06/02 09:17:40;;;;;;;9.70;5.03;;;;;;;16.42;83.55;99303.41;5025417;28;20210;-78
2023/06/02 09:20:11;;;;;;;11.30;4.87;;;;;;;16.66;83.02;99303.09;5026481;28;20661;-78
2023/06/02 09:22:56;;;;;;;10.73;4.40;;;;;;;16.65;77.98;99302.25;5023355;28;20205;-78
2023/06/02 09:25:25;;;;;;;11.93;5.60;;;;;;;16.46;81.62;99304.81;5022319;28;20216;-78
2023/06/02 09:27:55;;;;;;;11.97;5.20;;;;;;;16.86;77.91;99310.25;5025810;28;20225;-78
2023/06/02 09:30:25;;;;;;;14.87;4.70;;;;;;;16.69;77.10;99309.03;5029189;28;20208;-78
2023/06/02 09:32:55;;;;;;;11.73;4.70;;;;;;;17.22;76.79;99308.84;5026146;28;20213;-79
2023/06/02 09:35:35;;;;;;;9.50;4.17;;;;;;;17.42;73.35;99304.38;4998188;28;20209;-78
2023/06/02 09:38:05;;;;;;;11.67;4.70;;;;;;;17.21;71.94;99303.63;5030070;28;20289;-77
2023/06/02 09:40:35;;;;;;;10.90;4.27;;;;;;;17.27;71.60;99303.06;5033167;28;20205;-78
2023/06/02 09:43:05;;;;;;;14.37;7.77;;;;;;;17.38;70.50;99308.31;5030235;28;20198;-78
2023/06/02 09:46:03;;;;;;;11.50;4.40;;;;;;;17.86;70.41;99294.19;4993693;28;20749;-78
2023/06/02 09:48:34;;;;;;;12.53;4.83;;;;;;;17.57;69.79;99307.50;4987977;28;20215;-77
2023/06/02 09:51:22;;;;;;;15.43;5.23;;;;;;;17.39;70.48;99302.84;4988886;28;20234;-77
2023/06/02 09:53:51;;;;;;;11.83;5.00;;;;;;;17.49;71.74;99310.88;4992285;28;20206;-77
2023/06/02 09:56:22;;;;;;;13.33;5.07;;;;;;;17.76;72.00;99309.38;4988741;28;20199;-78
2023/06/02 09:58:50;;;;;;;12.10;4.70;;;;;;;18.04;68.35;99311.22;4990052;28;20206;-77
2023/06/02 10:01:21;;;;;;;13.47;5.30;;;;;;;18.43;66.23;99309.34;4992517;28;20745;-77
2023/06/02 10:03:49;;;;;;;11.63;4.63;;;;;;;18.64;68.00;99301.09;5007892;28;20286;-77
2023/06/02 10:06:35;;;;;;;13.03;5.10;;;;;;;18.51;68.00;99308.59;5027192;28;20214;-77
2023/06/02 10:09:18;;;;;;;11.23;5.00;;;;;;;17.83;69.34;99319.41;5033296;28;20197;-77
2023/06/02 10:12:02;;;;;;;12.93;5.03;;;;;;;18.36;64.50;99305.56;5032571;28;20652;-77
2023/06/02 10:14:49;;;;;;;14.00;5.40;;;;;;;17.95;66.69;99301.34;5032381;28;20212;-77
2023/06/02 10:17:30;;;;;;;12.53;4.80;;;;;;;18.51;65.13;99303.25;5025603;28;20202;-77
2023/06/02 10:20:22;;;;;;;10.20;5.10;;;;;;;18.39;67.10;99310.63;5028792;28;20190;-77
2023/06/02 10:23:11;;;;;;;14.17;5.03;;;;;;;18.37;64.65;99309.06;5026422;28;20213;-77
2023/06/02 10:25:50;;;;;;;11.83;4.27;;;;;;;19.07;61.62;99310.44;5029280;28;20236;-77
2023/06/02 10:28:21;;;;;;;13.23;4.57;;;;;;;18.63;59.82;99304.78;5031914;28;20309;-77
2023/06/02 10:30:49;;;;;;;14.77;5.20;;;;;;;19.02;62.59;99318.09;5024742;28;20202;-77
2023/06/02 10:33:48;;;;;;;14.03;5.67;;;;;;;19.35;60.18;99301.38;5030603;28;20197;-77
2023/06/02 10:36:17;;;;;;;14.57;5.27;;;;;;;19.59;58.28;99300.84;5034801;28;20225;-78
2023/06/02 10:38:47;;;;;;;16.73;5.70;;;;;;;19.37;56.74;99306.59;5010041;28;20286;-77
2023/06/02 10:41:21;;;;;;;11.90;4.73;;;;;;;19.59;56.96;99302.66;5031667;28;20720;-77
2023/06/02 10:44:21;;;;;;;10.83;4.17;;;;;;;20.16;54.10;99305.88;5023731;28;20272;-77
2023/06/02 10:47:24;;;;;;;13.53;4.70;;;;;;;19.55;54.66;99298.56;5028570;28;20285;-77
2023/06/02 10:49:55;;;;;;;9.60;4.10;;;;;;;20.42;52.60;99296.00;5029853;28;20661;-78
2023/06/02 10:52:24;;;;;;;7.87;3.87;;;;;;;20.71;52.32;99292.19;5028180;28;20281;-78
2023/06/02 10:55:27;;;;;;;11.47;4.27;;;;;;;20.11;54.69;99292.91;5024717;28;20205;-77
2023/06/02 10:57:56;;;;;;;13.43;4.20;;;;;;;19.37;56.52;99288.63;5029870;28;20251;-78
2023/06/02 11:00:45;;;;;;;13.27;3.80;;;;;;;20.30;53.71;99279.28;5027217;28;20201;-79
2023/06/02 11:03:31;;;;;;;8.63;3.83;;;;;;;19.69;53.92;99281.97;5027249;28;20222;-78
2023/06/02 11:06:21;;;;;;;12.63;3.90;;;;;;;19.66;55.13;99290.31;5034156;28;20197;-78
2023/06/02 11:08:51;;;;;;;11.43;3.90;;;;;;;20.14;53.02;99289.06;5031227;28;20221;-78
2023/06/02 11:11:51;;;;;;;11.73;3.77;;;;;;;21.00;50.30;99273.81;5029891;28;20251;-77
2023/06/02 11:14:20;;;;;;;10.97;3.57;;;;;;;20.99;52.76;99263.22;5034225;28;20281;-78
2023/06/02 11:17:21;;;;;;;8.57;3.67;;;;;;;21.15;49.82;99277.59;5024652;28;20201;-77
2023/06/02 11:19:50;;;;;;;11.57;4.25;;;;;;;21.28;48.26;99281.69;5033951;28;20276;-77
2023/06/02 11:22:22;;;;;;;11.37;4.20;;;;;;;21.73;47.57;99270.53;5030883;28;20208;-78
2023/06/02 11:24:53;;;;;;;10.97;4.30;;;;;;;21.71;46.79;99275.22;5031090;28;20221;-78
2023/06/02 11:27:39;;;;;;;7.90;3.47;;;;;;;21.42;46.05;99272.97;4979547;28;20214;-78
2023/06/02 11:30:10;;;;;;;14.30;4.23;;;;;;;21.41;46.07;99268.59;5026452;28;20276;-78
2023/06/02 11:32:39;;;;;;;10.15;3.30;;;;;;;22.30;46.63;99265.16;5024099;28;20185;-77
2023/06/02 11:35:10;;;;;;;8.60;3.33;;;;;;;22.02;44.40;99270.03;5026856;28;20205;-78
2023/06/02 11:37:42;;;;;;;11.88;3.75;;;;;;;22.97;42.56;99270.25;5026507;28;20189;-78
2023/06/02 11:40:14;;;;;;;10.57;3.28;;;;;;;22.28;43.64;99267.16;5030780;28;20194;-78
2023/06/02 11:42:44;;;;;;;10.18;3.97;;;;;;;22.54;43.58;99264.25;4984270;28;20244;-78